CSN3451 ZGSZ-ZPPP
Flight info
| Callsign | CSN3451 |
|---|---|
| Flight time | N/A |
| Altitude | 36100 |
| Route | TOMUD R200 LH R339 BSE A599 LXI |
| Aircraft | A339/H-SADE1E2E3GHIJ1J3J5M1P2RWXY/LB2D1 |
Departure
| Time | N/A |
|---|---|
| Airport | Shenzhen Bao'an International Airport (ZGSZ) |
Arrival
| Time | 2026-05-01 07:42 |
|---|---|
| Airport | Kunming Changshui International Airport (ZPPP) |
| Time | Latitude | Longitude | Altitude | Speed | Heading |
|---|---|---|---|---|---|
| 2026-05-01 07:23 | 24.55347 | 103.20922 | 26035 ft | 424 kts | 275° |
| 2026-05-01 07:23 | 24.56629 | 103.14623 | 25305 ft | 422 kts | 286° |
| 2026-05-01 07:24 | 24.57621 | 103.11599 | 24884 ft | 419 kts | 288° |
| 2026-05-01 07:24 | 24.58636 | 103.08619 | 24453 ft | 416 kts | 288° |
| 2026-05-01 07:24 | 24.59651 | 103.05658 | 24014 ft | 413 kts | 287° |
| 2026-05-01 07:24 | 24.60660 | 103.02705 | 23569 ft | 410 kts | 287° |
| 2026-05-01 07:25 | 24.61651 | 102.99789 | 23131 ft | 407 kts | 287° |
| 2026-05-01 07:25 | 24.62634 | 102.96888 | 22684 ft | 404 kts | 287° |
| 2026-05-01 07:25 | 24.63623 | 102.93970 | 22236 ft | 402 kts | 286° |
| 2026-05-01 07:25 | 24.64621 | 102.91109 | 21789 ft | 401 kts | 290° |
| 2026-05-01 07:26 | 24.66203 | 102.88561 | 21342 ft | 409 kts | 310° |
| 2026-05-01 07:26 | 24.68507 | 102.86684 | 20918 ft | 417 kts | 327° |
| 2026-05-01 07:26 | 24.71302 | 102.85678 | 20480 ft | 427 kts | 347° |
| 2026-05-01 07:26 | 24.74291 | 102.85715 | 20066 ft | 435 kts | 6° |
| 2026-05-01 07:27 | 24.77160 | 102.86851 | 19635 ft | 443 kts | 27° |
| 2026-05-01 07:27 | 24.79706 | 102.88819 | 19234 ft | 442 kts | 34° |
| 2026-05-01 07:27 | 24.82179 | 102.90850 | 18814 ft | 440 kts | 34° |
| 2026-05-01 07:27 | 24.84626 | 102.92842 | 18411 ft | 437 kts | 34° |
| 2026-05-01 07:28 | 24.87070 | 102.94813 | 18004 ft | 434 kts | 33° |
| 2026-05-01 07:28 | 24.89523 | 102.96779 | 17592 ft | 432 kts | 33° |
| 2026-05-01 07:28 | 24.91962 | 102.98725 | 17187 ft | 430 kts | 33° |
| 2026-05-01 07:28 | 24.94395 | 103.00667 | 16774 ft | 428 kts | 33° |
| 2026-05-01 07:29 | 24.96825 | 103.02606 | 16355 ft | 425 kts | 33° |
| 2026-05-01 07:29 | 24.99228 | 103.04521 | 15933 ft | 423 kts | 33° |
| 2026-05-01 07:29 | 25.01612 | 103.06422 | 15500 ft | 422 kts | 33° |
| 2026-05-01 07:29 | 25.03993 | 103.08314 | 15071 ft | 419 kts | 33° |
| 2026-05-01 07:30 | 25.06371 | 103.10182 | 14654 ft | 417 kts | 33° |
| 2026-05-01 07:30 | 25.08732 | 103.12032 | 14247 ft | 415 kts | 32° |
| 2026-05-01 07:30 | 25.11081 | 103.13864 | 13909 ft | 409 kts | 32° |
| 2026-05-01 07:30 | 25.13394 | 103.15661 | 13820 ft | 397 kts | 32° |
| 2026-05-01 07:31 | 25.15622 | 103.17392 | 13743 ft | 384 kts | 32° |
| 2026-05-01 07:31 | 25.21881 | 103.22274 | 13606 ft | 349 kts | 31° |
| 2026-05-01 07:32 | 25.25765 | 103.25306 | 13540 ft | 328 kts | 31° |
| 2026-05-01 07:32 | 25.27617 | 103.26755 | 13511 ft | 317 kts | 31° |
| 2026-05-01 07:33 | 25.31365 | 103.28672 | 13385 ft | 278 kts | 348° |
| 2026-05-01 07:33 | 25.33119 | 103.28045 | 13159 ft | 259 kts | 314° |
| 2026-05-01 07:33 | 25.35164 | 103.24970 | 12664 ft | 246 kts | 297° |
| 2026-05-01 07:34 | 25.36115 | 103.23390 | 12410 ft | 248 kts | 299° |
| 2026-05-01 07:34 | 25.38181 | 103.20285 | 11895 ft | 249 kts | 297° |
| 2026-05-01 07:34 | 25.38761 | 103.18539 | 11592 ft | 241 kts | 268° |
| 2026-05-01 07:35 | 25.38417 | 103.16760 | 11311 ft | 239 kts | 241° |
| 2026-05-01 07:35 | 25.37328 | 103.15387 | 11035 ft | 242 kts | 219° |
| 2026-05-01 07:35 | 25.35995 | 103.14268 | 10886 ft | 237 kts | 220° |
| 2026-05-01 07:35 | 25.34741 | 103.13159 | 10877 ft | 225 kts | 222° |
| 2026-05-01 07:36 | 25.33558 | 103.12069 | 10870 ft | 213 kts | 222° |
| 2026-05-01 07:36 | 25.32452 | 103.11063 | 10880 ft | 200 kts | 221° |
| 2026-05-01 07:36 | 25.31408 | 103.10130 | 10882 ft | 185 kts | 221° |
| 2026-05-01 07:36 | 25.30434 | 103.09271 | 10871 ft | 176 kts | 221° |
| 2026-05-01 07:37 | 25.28502 | 103.07580 | 10563 ft | 176 kts | 221° |
| 2026-05-01 07:37 | 25.27544 | 103.06749 | 10348 ft | 175 kts | 221° |
| 2026-05-01 07:37 | 25.26581 | 103.05913 | 10141 ft | 173 kts | 221° |
| 2026-05-01 07:38 | 25.25649 | 103.05106 | 9923 ft | 166 kts | 220° |
| 2026-05-01 07:38 | 25.24753 | 103.04330 | 9711 ft | 162 kts | 221° |
| 2026-05-01 07:38 | 25.22981 | 103.02792 | 9320 ft | 162 kts | 220° |
| 2026-05-01 07:39 | 25.22098 | 103.02025 | 9121 ft | 161 kts | 220° |
| 2026-05-01 07:39 | 25.21216 | 103.01260 | 8923 ft | 161 kts | 220° |
| 2026-05-01 07:39 | 25.19461 | 102.99735 | 8521 ft | 159 kts | 220° |
| 2026-05-01 07:40 | 25.18588 | 102.98976 | 8325 ft | 159 kts | 219° |
| 2026-05-01 07:40 | 25.17721 | 102.98222 | 8125 ft | 158 kts | 219° |
| 2026-05-01 07:40 | 25.16858 | 102.97472 | 7928 ft | 158 kts | 219° |
| 2026-05-01 07:40 | 25.15994 | 102.96720 | 7736 ft | 157 kts | 219° |
| 2026-05-01 07:41 | 25.15137 | 102.95974 | 7540 ft | 157 kts | 219° |
| 2026-05-01 07:41 | 25.14278 | 102.95223 | 7317 ft | 155 kts | 218° |
| 2026-05-01 07:41 | 25.12597 | 102.93780 | 6938 ft | 143 kts | 219° |
| 2026-05-01 07:42 | 25.12060 | 102.93300 | 6938 ft | 56 kts | 218° |
| 2026-05-01 07:42 | 25.11817 | 102.93087 | 6938 ft | 41 kts | 218° |
| 2026-05-01 07:42 | 25.11619 | 102.92932 | 6938 ft | 28 kts | 207° |
| 2026-05-01 07:42 | 25.11467 | 102.92878 | 6938 ft | 16 kts | 192° |
| 2026-05-01 07:43 | 25.11362 | 102.92853 | 6938 ft | 12 kts | 190° |
| 2026-05-01 07:43 | 25.11286 | 102.92837 | 6939 ft | 11 kts | 193° |
| 2026-05-01 07:43 | 25.11161 | 102.92756 | 6938 ft | 10 kts | 218° |
| 2026-05-01 07:44 | 25.11043 | 102.92738 | 6938 ft | 10 kts | 133° |
| 2026-05-01 07:44 | 25.10961 | 102.92848 | 6938 ft | 9 kts | 130° |
| 2026-05-01 07:45 | 25.10922 | 102.92899 | 6938 ft | 9 kts | 131° |
| 2026-05-01 07:45 | 25.10884 | 102.92949 | 6938 ft | 8 kts | 128° |
| 2026-05-01 07:45 | 25.10850 | 102.92998 | 6938 ft | 8 kts | 127° |
| 2026-05-01 07:45 | 25.10810 | 102.93047 | 6938 ft | 9 kts | 144° |
| 2026-05-01 07:46 | 25.10752 | 102.93073 | 6938 ft | 9 kts | 162° |
| 2026-05-01 07:46 | 25.10691 | 102.93096 | 6938 ft | 9 kts | 154° |
| 2026-05-01 07:46 | 25.10612 | 102.93190 | 6938 ft | 8 kts | 129° |
| 2026-05-01 07:47 | 25.10576 | 102.93238 | 6938 ft | 8 kts | 129° |
| 2026-05-01 07:47 | 25.10548 | 102.93268 | 6938 ft | 4 kts | 174° |
| 2026-05-01 07:47 | 25.10521 | 102.93269 | 6938 ft | 4 kts | 178° |
| 2026-05-01 07:47 | 25.10495 | 102.93262 | 6938 ft | 4 kts | 219° |
| 2026-05-01 07:48 | 25.10460 | 102.93207 | 6938 ft | 5 kts | 205° |
| 2026-05-01 07:48 | 25.10423 | 102.93198 | 6938 ft | 6 kts | 189° |
| 2026-05-01 07:48 | 25.10400 | 102.93194 | 6938 ft | 2 kts | 188° |
| 2026-05-01 07:49 | 25.10394 | 102.93193 | 6938 ft | 0 kts | 188° |